Time;durP1;ratioP1;P1;durP2;ratioP2;P2;SDS_P1;SDS_P2;PMS_P1;PMS_P2;Temp;Humidity;BMP_temperature;BMP_pressure;BME280_temperature;BME280_humidity;BME280_pressure;Samples;Min_cycle;Max_cycle;Signal;HPM_P1;HPM_P2
2022/07/04 00:02:07;;;;;;;2.80;2.50;;;20.50;46.60;;;;;;4997724;28;20502;-51
2022/07/04 00:04:34;;;;;;;2.23;2.13;;;20.50;43.90;;;;;;5001066;28;20563;-52
2022/07/04 00:07:00;;;;;;;1.50;1.40;;;20.40;40.40;;;;;;4998478;28;20495;-52
2022/07/04 00:09:27;;;;;;;1.90;1.80;;;20.40;38.90;;;;;;4996264;28;20950;-52
2022/07/04 00:11:54;;;;;;;5.77;1.80;;;20.40;36.10;;;;;;5002992;28;20575;-51
2022/07/04 00:14:20;;;;;;;3.37;1.90;;;20.40;35.50;;;;;;4999864;28;20541;-51
2022/07/04 00:16:48;;;;;;;2.90;1.80;;;20.30;31.60;;;;;;4998214;28;20495;-52
2022/07/04 00:19:15;;;;;;;1.80;1.37;;;20.30;28.40;;;;;;5000093;28;20488;-52
2022/07/04 00:21:41;;;;;;;2.03;1.67;;;20.20;25.80;;;;;;4997428;28;21024;-52
2022/07/04 00:24:08;;;;;;;3.83;1.60;;;20.10;81.20;;;;;;4998861;28;20570;-52
2022/07/04 00:26:34;;;;;;;3.63;1.50;;;20.10;99.90;;;;;;5000132;28;20498;-51
2022/07/04 00:29:01;;;;;;;1.53;1.43;;;20.00;99.90;;;;;;4996503;28;20557;-51
2022/07/04 00:31:28;;;;;;;3.23;1.80;;;20.00;99.90;;;;;;4995993;28;20934;-51
2022/07/04 00:33:56;;;;;;;1.70;1.60;;;19.90;99.90;;;;;;5003308;28;20518;-51
2022/07/04 00:36:22;;;;;;;1.97;1.77;;;19.90;99.90;;;;;;5000028;28;21347;-52
2022/07/04 00:38:49;;;;;;;1.70;1.60;;;19.80;99.90;;;;;;5002481;28;20522;-52
2022/07/04 00:41:16;;;;;;;2.13;1.93;;;19.70;99.90;;;;;;4997990;28;20491;-52
2022/07/04 00:43:42;;;;;;;1.67;1.57;;;19.70;99.90;;;;;;5013614;23;20535;-53
2022/07/04 00:46:09;;;;;;;6.20;2.27;;;19.70;99.90;;;;;;4998160;28;20575;-53
2022/07/04 00:48:35;;;;;;;1.67;1.57;;;19.60;99.90;;;;;;4998066;28;20479;-52
2022/07/04 00:51:03;;;;;;;2.10;1.63;;;19.50;99.90;;;;;;4995917;28;20495;-52
2022/07/04 00:53:31;;;;;;;4.00;2.00;;;19.50;99.90;;;;;;5013535;28;20486;-54
2022/07/04 00:55:57;;;;;;;6.83;2.10;;;19.50;99.90;;;;;;5017330;28;20931;-52
2022/07/04 00:58:24;;;;;;;2.03;1.83;;;19.40;99.90;;;;;;5017909;28;20454;-53
2022/07/04 01:00:51;;;;;;;3.17;1.90;;;19.30;99.90;;;;;;5016662;28;20493;-53
2022/07/04 01:03:18;;;;;;;2.30;1.80;;;19.30;99.90;;;;;;5017422;28;20517;-53
2022/07/04 01:05:45;;;;;;;2.07;1.97;;;19.30;99.90;;;;;;5020008;28;20894;-52
2022/07/04 01:08:14;;;;;;;2.10;1.70;;;19.20;99.90;;;;;;5017418;28;20523;-53
2022/07/04 01:10:41;;;;;;;1.83;1.70;;;19.10;99.90;;;;;;5008776;28;20470;-52
2022/07/04 01:13:07;;;;;;;2.43;1.97;;;19.10;99.90;;;;;;5017314;28;20483;-53
2022/07/04 01:15:34;;;;;;;2.40;2.07;;;19.10;99.90;;;;;;5018451;28;20797;-52
2022/07/04 01:18:01;;;;;;;1.47;1.40;;;19.00;99.90;;;;;;5017447;28;20458;-53
2022/07/04 01:20:34;;;;;;;4.70;1.87;;;19.00;99.90;;;;;;5014583;28;20542;-52
2022/07/04 01:23:01;;;;;;;3.20;2.30;;;18.90;99.90;;;;;;5015467;28;20482;-53
2022/07/04 01:25:28;;;;;;;4.63;1.90;;;18.90;99.90;;;;;;5018212;28;20449;-53
2022/07/04 01:27:54;;;;;;;1.90;1.80;;;18.80;99.90;;;;;;5018933;28;20629;-52
2022/07/04 01:30:21;;;;;;;7.00;1.90;;;18.70;99.90;;;;;;5022069;28;20462;-52
2022/07/04 01:32:48;;;;;;;4.10;2.00;;;18.70;99.90;;;;;;5020030;28;20492;-53
2022/07/04 01:35:14;;;;;;;3.00;1.97;;;18.70;99.90;;;;;;5027738;28;20462;-52
2022/07/04 01:37:42;;;;;;;2.33;2.10;;;18.70;99.90;;;;;;5018410;28;20533;-53
2022/07/04 01:40:12;;;;;;;1.80;1.80;;;18.60;99.90;;;;;;5028016;28;20463;-53
2022/07/04 01:42:38;;;;;;;2.20;2.10;;;18.60;99.90;;;;;;5022112;28;20494;-53
2022/07/04 01:45:06;;;;;;;2.33;2.00;;;18.60;99.90;;;;;;5016588;28;20517;-53
2022/07/04 01:47:33;;;;;;;2.40;2.30;;;18.50;99.90;;;;;;5020216;28;20969;-54
2022/07/04 01:50:00;;;;;;;2.90;2.67;;;18.50;99.90;;;;;;5018907;28;20526;-53
2022/07/04 01:52:26;;;;;;;3.23;2.10;;;18.50;96.30;;;;;;5028196;28;20482;-53
2022/07/04 01:54:54;;;;;;;2.63;2.43;;;18.40;91.70;;;;;;5027584;28;21043;-52
2022/07/04 01:57:21;;;;;;;3.37;3.10;;;18.40;84.00;;;;;;5027782;28;20451;-53
2022/07/04 02:02:32;;;;;;;3.33;2.50;;;18.40;77.20;;;;;;5019377;28;20593;-53
2022/07/04 02:05:00;;;;;;;2.67;2.40;;;18.40;75.60;;;;;;5023230;28;20460;-53
2022/07/04 02:07:26;;;;;;;4.23;2.97;;;18.40;78.80;;;;;;5020530;28;20518;-53
2022/07/04 02:09:54;;;;;;;4.20;2.90;;;18.30;73.10;;;;;;5021158;28;20560;-53
2022/07/04 02:15:06;;;;;;;2.60;2.40;;;18.30;67.10;;;;;;5019763;28;20442;-53
2022/07/04 02:17:33;;;;;;;5.83;3.03;;;18.20;60.80;;;;;;5024436;28;20455;-53
2022/07/04 02:20:00;;;;;;;7.40;3.37;;;18.10;56.90;;;;;;5020909;28;20467;-53
2022/07/04 02:22:26;;;;;;;7.10;3.20;;;18.10;52.80;;;;;;5021098;28;20548;-53
2022/07/04 02:24:54;;;;;;;3.20;3.00;;;18.00;51.20;;;;;;5016725;28;20491;-53
2022/07/04 02:27:21;;;;;;;3.63;2.83;;;18.00;49.80;;;;;;5022436;28;20460;-53
2022/07/04 02:29:47;;;;;;;7.90;2.93;;;17.90;43.90;;;;;;5021199;28;20479;-52
2022/07/04 02:32:14;;;;;;;3.47;3.27;;;17.90;36.30;;;;;;5016660;28;21070;-53
2022/07/04 02:34:41;;;;;;;3.10;2.80;;;17.90;34.20;;;;;;5021325;28;20512;-52
2022/07/04 02:37:07;;;;;;;3.00;2.80;;;17.80;30.60;;;;;;5022389;28;20572;-54
2022/07/04 02:39:34;;;;;;;3.43;2.90;;;17.80;29.40;;;;;;5020033;28;20458;-53
2022/07/04 02:42:02;;;;;;;3.43;3.10;;;17.80;22.80;;;;;;5021071;28;20466;-53
2022/07/04 02:44:30;;;;;;;3.70;3.50;;;17.70;21.20;;;;;;5021146;28;20454;-52
2022/07/04 02:46:56;;;;;;;4.30;3.90;;;17.70;21.60;;;;;;5021695;28;20542;-53
2022/07/04 02:49:23;;;;;;;3.83;3.47;;;17.70;97.60;;;;;;5018817;28;20915;-53
2022/07/04 02:51:50;;;;;;;4.60;4.03;;;17.70;99.90;;;;;;5016506;28;20956;-53
2022/07/04 02:54:16;;;;;;;4.33;3.93;;;17.60;99.90;;;;;;5024117;28;20521;-53
2022/07/04 02:56:43;;;;;;;4.30;4.00;;;17.60;99.90;;;;;;5032363;28;20463;-52
2022/07/04 02:59:11;;;;;;;4.10;3.70;;;17.50;99.90;;;;;;5024518;28;20463;-55
2022/07/04 03:01:38;;;;;;;4.60;4.17;;;17.50;99.90;;;;;;5019515;28;20494;-54
2022/07/04 03:04:05;;;;;;;4.03;3.70;;;17.50;99.90;;;;;;5019683;28;20483;-53
2022/07/04 03:06:31;;;;;;;3.47;3.17;;;17.50;99.90;;;;;;5018911;28;20466;-53
2022/07/04 03:08:58;;;;;;;4.37;4.07;;;17.50;99.90;;;;;;5018436;28;20892;-53
2022/07/04 03:11:25;;;;;;;6.50;3.40;;;17.50;99.90;;;;;;5020049;28;20546;-54
2022/07/04 03:13:51;;;;;;;4.03;3.73;;;17.50;99.90;;;;;;5022014;28;20479;-53
2022/07/04 03:16:19;;;;;;;4.40;4.20;;;17.50;99.90;;;;;;5020564;28;20541;-54
2022/07/04 03:18:46;;;;;;;4.40;3.77;;;17.40;99.90;;;;;;5019374;28;20462;-53
2022/07/04 03:21:13;;;;;;;4.13;3.73;;;17.40;99.90;;;;;;5021617;28;20529;-52
2022/07/04 03:23:39;;;;;;;4.37;3.90;;;17.40;99.90;;;;;;5013732;28;20515;-52
2022/07/04 03:26:06;;;;;;;4.30;4.00;;;17.40;99.90;;;;;;5026837;28;20525;-53
2022/07/04 03:28:32;;;;;;;5.00;4.60;;;17.40;99.90;;;;;;5021432;28;21031;-54
2022/07/04 03:30:59;;;;;;;5.00;4.50;;;17.30;99.90;;;;;;5020825;28;20485;-53
2022/07/04 03:33:27;;;;;;;6.63;4.80;;;17.30;99.90;;;;;;5019266;28;20545;-52
2022/07/04 03:35:54;;;;;;;4.43;4.03;;;17.30;99.90;;;;;;5019422;28;20486;-51
2022/07/04 03:38:20;;;;;;;6.40;5.70;;;17.30;99.90;;;;;;5015479;28;20490;-52
2022/07/04 03:40:47;;;;;;;5.10;4.53;;;17.30;99.90;;;;;;5017416;28;20936;-54
2022/07/04 03:43:14;;;;;;;5.03;4.70;;;17.30;99.90;;;;;;5019705;28;20486;-54
2022/07/04 03:45:40;;;;;;;5.27;4.80;;;17.30;99.90;;;;;;5018121;28;20475;-53
2022/07/04 03:48:07;;;;;;;5.00;4.60;;;17.30;99.90;;;;;;5019544;28;20596;-55
2022/07/04 03:50:35;;;;;;;4.57;4.20;;;17.30;99.90;;;;;;5019479;28;20478;-52
2022/07/04 03:53:01;;;;;;;4.23;4.03;;;17.30;99.90;;;;;;5011923;28;20479;-53
2022/07/04 03:55:28;;;;;;;5.80;4.43;;;17.30;99.90;;;;;;5017956;28;20458;-53
2022/07/04 03:57:55;;;;;;;4.97;4.57;;;17.30;99.90;;;;;;5016292;28;20516;-53
2022/07/04 04:00:22;;;;;;;4.67;4.37;;;17.30;99.90;;;;;;5015479;28;20452;-54
2022/07/04 04:02:48;;;;;;;6.83;4.63;;;17.30;99.90;;;;;;5020451;28;20508;-53
2022/07/04 04:05:26;;;;;;;5.00;4.70;;;17.30;99.90;;;;;;5020459;28;20491;-53
2022/07/04 04:07:55;;;;;;;4.90;4.60;;;17.30;99.90;;;;;;5012245;28;21047;-54
2022/07/04 04:10:22;;;;;;;5.30;4.90;;;17.30;99.90;;;;;;5017708;28;20547;-53
2022/07/04 04:12:48;;;;;;;6.00;5.40;;;17.40;99.90;;;;;;5020963;28;20489;-54
2022/07/04 04:15:15;;;;;;;7.50;5.80;;;17.30;99.90;;;;;;5017075;28;20458;-54
2022/07/04 04:17:42;;;;;;;6.30;5.30;;;17.30;99.90;;;;;;5016739;28;20487;-54
2022/07/04 04:20:09;;;;;;;5.80;5.30;;;17.30;99.90;;;;;;5013700;28;20548;-53
2022/07/04 04:22:36;;;;;;;12.37;5.20;;;17.30;99.90;;;;;;5014204;28;20487;-53
2022/07/04 04:25:05;;;;;;;6.33;5.50;;;17.30;99.90;;;;;;5016678;28;20460;-53
2022/07/04 04:27:31;;;;;;;7.07;5.27;;;17.30;99.90;;;;;;5018563;28;20459;-55
2022/07/04 04:29:58;;;;;;;5.03;4.60;;;17.40;99.90;;;;;;5021000;28;20486;-54
2022/07/04 04:32:24;;;;;;;5.70;5.10;;;17.40;99.90;;;;;;5019425;28;20928;-53
2022/07/04 04:34:51;;;;;;;7.60;6.47;;;17.40;99.90;;;;;;5017368;28;20519;-53
2022/07/04 04:37:18;;;;;;;11.10;4.53;;;17.40;99.90;;;;;;5016494;28;21023;-53
2022/07/04 04:39:44;;;;;;;4.90;4.53;;;17.40;99.90;;;;;;5020452;28;20533;-53
2022/07/04 04:42:12;;;;;;;9.10;5.00;;;17.40;99.90;;;;;;5018324;28;20491;-53
2022/07/04 04:44:39;;;;;;;8.43;4.33;;;17.50;99.90;;;;;;5016620;28;20466;-53
2022/07/04 04:47:06;;;;;;;7.03;4.73;;;17.50;99.90;;;;;;5018295;28;20455;-53
2022/07/04 04:49:32;;;;;;;6.10;4.80;;;17.50;99.90;;;;;;5021896;28;20494;-53
2022/07/04 04:51:59;;;;;;;4.40;4.10;;;17.50;99.90;;;;;;5018614;28;20462;-53
2022/07/04 04:54:25;;;;;;;7.40;4.23;;;17.50;99.90;;;;;;5017890;28;20454;-53
2022/07/04 04:56:52;;;;;;;7.37;4.43;;;17.40;99.90;;;;;;5016881;28;20467;-52
2022/07/04 04:59:20;;;;;;;7.90;4.10;;;17.40;99.90;;;;;;5018624;28;20499;-53
2022/07/04 05:01:47;;;;;;;6.57;4.07;;;17.40;99.90;;;;;;5019980;28;20451;-54
2022/07/04 05:04:15;;;;;;;6.07;4.37;;;17.50;99.90;;;;;;5020705;28;20486;-53
2022/07/04 05:06:42;;;;;;;5.03;3.80;;;17.50;99.90;;;;;;5020229;28;20459;-54
2022/07/04 05:09:08;;;;;;;7.70;3.40;;;17.40;99.90;;;;;;5022804;28;20459;-53
2022/07/04 05:11:35;;;;;;;5.03;3.93;;;17.40;99.90;;;;;;5018054;28;20459;-54
2022/07/04 05:14:02;;;;;;;5.73;3.47;;;17.50;99.90;;;;;;5021461;28;20490;-51
2022/07/04 05:16:30;;;;;;;6.30;3.13;;;17.50;99.90;;;;;;5017597;28;20542;-52
2022/07/04 05:18:57;;;;;;;7.07;3.20;;;17.60;99.90;;;;;;5017956;28;20525;-52
2022/07/04 05:21:26;;;;;;;3.73;3.00;;;17.60;99.90;;;;;;5017780;28;20516;-52
2022/07/04 05:23:52;;;;;;;3.47;3.17;;;17.70;99.90;;;;;;5018548;28;20538;-52
2022/07/04 05:26:19;;;;;;;3.93;2.80;;;17.70;99.90;;;;;;5018304;28;20470;-51
2022/07/04 05:28:46;;;;;;;4.17;2.60;;;17.70;92.00;;;;;;5013946;28;20979;-52
2022/07/04 05:31:12;;;;;;;9.00;3.20;;;17.70;24.10;;;;;;5019784;28;20514;-52
2022/07/04 05:33:40;;;;;;;5.27;2.70;;;17.70;33.70;;;;;;5018148;28;21087;-52
2022/07/04 05:36:07;;;;;;;10.93;2.60;;;17.70;44.00;;;;;;5016068;28;20467;-51
2022/07/04 05:38:34;;;;;;;5.50;2.57;;;17.80;46.00;;;;;;5017846;28;20458;-51
2022/07/04 05:41:02;;;;;;;3.53;2.20;;;17.80;47.80;;;;;;5019462;28;20455;-52
2022/07/04 05:43:28;;;;;;;12.47;2.60;;;17.90;54.30;;;;;;5021889;28;20540;-52
2022/07/04 05:45:55;;;;;;;6.77;2.57;;;18.00;65.90;;;;;;5019541;28;20522;-52
2022/07/04 05:48:21;;;;;;;6.47;1.67;;;18.00;86.30;;;;;;5020965;28;20959;-52
2022/07/04 05:50:49;;;;;;;3.10;1.70;;;18.10;99.90;;;;;;5016721;28;20510;-52
2022/07/04 05:53:16;;;;;;;5.47;2.03;;;18.20;99.90;;;;;;5020570;28;20487;-52
2022/07/04 05:55:43;;;;;;;4.00;1.73;;;18.20;99.90;;;;;;5018784;28;21131;-53
2022/07/04 05:58:09;;;;;;;3.30;1.53;;;18.20;99.90;;;;;;5016444;28;20508;-64
2022/07/04 06:00:39;;;;;;;5.50;1.90;;;18.30;99.90;;;;;;5012614;28;20459;-53
2022/07/04 06:03:06;;;;;;;9.70;1.53;;;18.40;99.90;;;;;;5016779;28;20541;-51
2022/07/04 06:05:32;;;;;;;2.40;1.20;;;18.40;99.90;;;;;;5009340;28;20467;-53
2022/07/04 06:08:01;;;;;;;2.77;1.63;;;18.50;99.90;;;;;;5015419;28;21034;-52
2022/07/04 06:10:28;;;;;;;5.23;1.20;;;18.50;99.90;;;;;;5013258;28;20481;-52
2022/07/04 06:12:55;;;;;;;8.03;1.40;;;18.50;99.90;;;;;;5023086;28;20516;-51
2022/07/04 06:15:21;;;;;;;7.20;1.03;;;18.60;99.90;;;;;;5024290;28;20458;-52
2022/07/04 06:17:48;;;;;;;3.63;0.90;;;18.60;99.90;;;;;;5028032;28;20462;-52
2022/07/04 06:20:15;;;;;;;0.90;0.73;;;18.70;99.90;;;;;;5035003;28;20517;-53
2022/07/04 06:22:43;;;;;;;3.23;0.70;;;18.70;29.60;;;;;;5026278;28;20544;-52
2022/07/04 06:25:13;;;;;;;2.30;0.90;;;18.70;40.50;;;;;;5018326;28;20488;-52
2022/07/04 06:27:40;;;;;;;1.03;0.90;;;18.80;45.10;;;;;;5024672;28;21169;-52
2022/07/04 06:30:07;;;;;;;5.23;1.20;;;18.80;50.60;;;;;;5015639;28;20604;-52
2022/07/04 06:32:42;;;;;;;0.97;0.97;;;18.80;51.80;;;;;;5017113;28;20835;-53
2022/07/04 06:37:54;;;;;;;2.83;0.60;;;19.00;57.90;;;;;;5017938;28;20530;-51
2022/07/04 06:40:22;;;;;;;0.73;0.73;;;19.00;61.00;;;;;;5013852;28;20463;-51
2022/07/04 06:42:49;;;;;;;1.83;1.00;;;19.00;59.20;;;;;;5029032;23;21018;-54
2022/07/04 06:45:16;;;;;;;2.30;0.80;;;19.10;63.80;;;;;;4996177;28;20586;-52
2022/07/04 06:47:43;;;;;;;3.70;1.43;;;19.20;59.50;;;;;;4995746;28;20519;-52
2022/07/04 06:50:10;;;;;;;2.47;0.90;;;19.20;60.30;;;;;;5000601;28;20533;-52
2022/07/04 06:52:37;;;;;;;4.73;1.10;;;19.30;61.80;;;;;;4998793;28;20514;-52
2022/07/04 06:55:04;;;;;;;1.60;1.20;;;19.30;65.00;;;;;;5005712;28;20480;-51
2022/07/04 06:57:32;;;;;;;0.97;0.87;;;19.20;62.60;;;;;;5005231;28;20506;-51
2022/07/04 06:59:59;;;;;;;2.60;1.00;;;19.20;68.10;;;;;;4997410;28;20992;-52
2022/07/04 07:02:25;;;;;;;3.60;1.03;;;19.10;68.30;;;;;;4991583;28;20471;-53
2022/07/04 07:04:54;;;;;;;2.30;0.80;;;19.10;63.80;;;;;;4993033;28;20484;-53
2022/07/04 07:07:21;;;;;;;1.73;0.90;;;19.20;60.30;;;;;;5004880;28;20834;-52
2022/07/04 07:09:48;;;;;;;1.00;1.00;;;19.20;58.40;;;;;;5004275;28;20965;-53
2022/07/04 07:12:14;;;;;;;1.60;1.30;;;19.30;56.10;;;;;;4991344;28;20461;-53
2022/07/04 07:14:42;;;;;;;4.53;1.13;;;19.40;49.40;;;;;;4994225;28;20519;-52
2022/07/04 07:17:09;;;;;;;4.40;1.27;;;19.40;57.10;;;;;;4996599;28;20919;-52
2022/07/04 07:19:35;;;;;;;7.10;1.27;;;19.40;58.40;;;;;;5002223;28;20544;-53
2022/07/04 07:22:02;;;;;;;3.37;1.03;;;19.40;51.90;;;;;;5002978;28;20460;-52
2022/07/04 07:24:30;;;;;;;8.23;1.10;;;19.30;54.30;;;;;;4996607;28;20494;-52
2022/07/04 07:26:57;;;;;;;3.53;1.30;;;19.20;54.80;;;;;;4999374;28;20547;-53
2022/07/04 07:29:24;;;;;;;2.17;1.30;;;19.20;41.10;;;;;;5000895;28;20500;-52
2022/07/04 07:31:52;;;;;;;2.60;1.10;;;19.20;46.70;;;;;;5001748;28;20488;-52
2022/07/04 07:34:18;;;;;;;1.60;1.27;;;19.20;58.60;;;;;;4998784;28;20529;-53
2022/07/04 07:36:45;;;;;;;1.13;1.00;;;19.20;64.30;;;;;;4999359;28;20491;-53
2022/07/04 07:39:12;;;;;;;2.40;1.00;;;19.20;75.60;;;;;;4995875;28;20543;-52
2022/07/04 07:41:38;;;;;;;1.53;0.90;;;19.10;76.70;;;;;;4999721;28;20598;-53
2022/07/04 07:44:05;;;;;;;1.47;0.87;;;19.00;71.40;;;;;;4996614;28;20496;-53
2022/07/04 07:46:33;;;;;;;2.23;1.20;;;19.00;62.60;;;;;;4998229;28;20472;-52
2022/07/04 07:49:01;;;;;;;2.50;1.00;;;19.10;55.10;;;;;;5002500;28;20492;-52
2022/07/04 07:51:27;;;;;;;2.60;1.07;;;19.20;61.20;;;;;;4991393;28;21053;-52
2022/07/04 07:53:54;;;;;;;1.17;1.07;;;19.30;55.80;;;;;;5002642;28;20538;-52
2022/07/04 07:56:22;;;;;;;5.13;0.90;;;19.40;70.80;;;;;;4998742;28;20584;-53
2022/07/04 07:58:49;;;;;;;1.23;1.00;;;19.50;84.40;;;;;;4993066;28;20949;-52
2022/07/04 08:01:15;;;;;;;1.90;1.10;;;19.40;87.80;;;;;;5003463;28;20526;-53
2022/07/04 08:06:28;;;;;;;15.30;1.20;;;19.60;83.30;;;;;;4995122;28;20941;-52
2022/07/04 08:08:54;;;;;;;5.53;1.27;;;19.80;79.20;;;;;;5006422;28;20444;-52
2022/07/04 08:11:21;;;;;;;7.10;1.10;;;19.90;78.00;;;;;;4992595;28;21090;-53
2022/07/04 08:13:48;;;;;;;2.37;0.83;;;20.10;70.80;;;;;;4995983;28;20480;-52
2022/07/04 08:16:14;;;;;;;6.10;1.17;;;20.20;71.80;;;;;;5002440;28;20529;-52
2022/07/04 08:18:41;;;;;;;13.57;1.13;;;20.30;89.00;;;;;;5004615;28;20463;-52
2022/07/04 08:21:08;;;;;;;2.93;1.10;;;20.30;95.80;;;;;;5002796;28;20464;-53
2022/07/04 08:23:37;;;;;;;1.57;0.80;;;20.30;94.20;;;;;;5002366;28;20874;-53
2022/07/04 08:26:04;;;;;;;2.90;1.00;;;20.40;95.70;;;;;;4996449;28;20879;-50
2022/07/04 08:28:31;;;;;;;4.07;1.00;;;20.50;95.90;;;;;;4997316;28;20479;-52
2022/07/04 08:30:59;;;;;;;5.03;1.77;;;20.60;89.90;;;;;;4996922;28;20541;-53
2022/07/04 08:33:26;;;;;;;4.30;0.97;;;20.80;99.90;;;;;;5000110;28;20483;-53
2022/07/04 08:35:53;;;;;;;4.40;0.90;;;20.90;99.90;;;;;;5009288;28;20495;-51
2022/07/04 08:38:20;;;;;;;8.60;0.87;;;21.00;99.90;;;;;;5005374;28;20482;-53
2022/07/04 08:40:50;;;;;;;2.17;1.07;;;20.90;99.90;;;;;;5003529;28;21131;-52
2022/07/04 08:43:20;;;;;;;4.57;0.97;;;20.90;99.90;;;;;;4999209;28;20490;-52
2022/07/04 08:45:49;;;;;;;2.03;0.97;;;20.80;99.90;;;;;;5005693;28;21117;-53
2022/07/04 08:48:16;;;;;;;15.23;0.90;;;20.80;99.90;;;;;;5003080;28;20562;-53
2022/07/04 08:50:48;;;;;;;2.80;0.70;;;20.70;99.90;;;;;;5008500;28;20568;-54
2022/07/04 08:53:18;;;;;;;5.27;0.90;;;20.70;99.90;;;;;;5000419;28;20954;-51
2022/07/04 08:58:33;;;;;;;4.00;1.30;;;20.80;99.90;;;;;;5004870;28;20946;-52
2022/07/04 09:01:02;;;;;;;6.63;0.87;;;21.00;99.90;;;;;;5003941;28;20484;-52
2022/07/04 09:03:30;;;;;;;6.90;1.40;;;21.10;99.90;;;;;;5005598;28;20487;-52
2022/07/04 09:05:57;;;;;;;3.00;0.80;;;21.10;99.90;;;;;;5003143;28;20455;-52
2022/07/04 09:08:25;;;;;;;4.10;1.00;;;21.20;99.90;;;;;;5009442;28;20522;-52
2022/07/04 09:10:54;;;;;;;1.60;1.00;;;21.40;99.90;;;;;;5006558;28;20483;-52
2022/07/04 09:13:21;;;;;;;4.80;0.83;;;21.50;99.90;;;;;;5003524;28;21207;-52
2022/07/04 09:15:50;;;;;;;4.90;1.03;;;21.60;99.90;;;;;;5006755;28;20463;-52
2022/07/04 09:18:27;;;;;;;3.63;1.20;;;21.50;99.90;;;;;;5010249;28;20543;-53
2022/07/04 09:20:56;;;;;;;3.03;1.17;;;21.40;99.90;;;;;;5005061;28;20542;-52
2022/07/04 09:23:24;;;;;;;1.30;1.00;;;21.50;99.90;;;;;;5004593;28;20586;-52
2022/07/04 09:26:10;;;;;;;1.60;1.10;;;21.60;99.90;;;;;;5007485;28;20462;-52
2022/07/04 09:28:37;;;;;;;1.90;1.10;;;21.80;99.90;;;;;;5004158;28;20478;-52
2022/07/04 09:31:14;;;;;;;1.00;0.83;;;21.90;99.90;;;;;;5001813;28;21028;-52
2022/07/04 09:33:46;;;;;;;3.60;1.07;;;22.20;99.90;;;;;;5006828;28;20482;-52
2022/07/04 09:36:13;;;;;;;5.53;1.77;;;22.30;99.90;;;;;;5009081;28;20468;-53
2022/07/04 09:38:40;;;;;;;7.60;1.00;;;22.10;99.90;;;;;;5007905;28;20525;-52
2022/07/04 09:41:29;;;;;;;2.57;0.80;;;22.00;99.90;;;;;;4998407;28;20561;-52
2022/07/04 09:44:04;;;;;;;5.00;1.10;;;22.00;99.90;;;;;;5002992;28;20545;-53
2022/07/04 09:46:31;;;;;;;2.83;1.00;;;22.30;99.90;;;;;;5003396;28;20458;-51
2022/07/04 09:48:57;;;;;;;3.27;1.63;;;22.30;99.90;;;;;;5006584;28;20502;-54
2022/07/04 09:51:41;;;;;;;3.20;1.10;;;22.10;99.90;;;;;;5005290;28;20487;-53
2022/07/04 09:54:15;;;;;;;4.60;1.17;;;22.00;99.90;;;;;;4997444;28;20481;-52
2022/07/04 09:56:45;;;;;;;2.20;0.90;;;22.10;99.90;;;;;;5004225;28;20494;-53
2022/07/04 09:59:12;;;;;;;2.50;0.80;;;22.00;99.90;;;;;;5003909;28;20995;-52
2022/07/04 10:01:39;;;;;;;0.80;0.77;;;21.90;99.90;;;;;;5000977;28;20496;-52
2022/07/04 10:04:06;;;;;;;1.77;1.10;;;22.00;99.90;;;;;;5000928;28;20487;-52
2022/07/04 10:06:33;;;;;;;3.70;1.80;;;21.90;99.90;;;;;;5001434;28;20483;-52
2022/07/04 10:09:09;;;;;;;2.50;1.03;;;22.20;99.90;;;;;;5001351;28;20739;-52
2022/07/04 10:11:38;;;;;;;0.93;0.70;;;22.30;99.90;;;;;;5000358;28;21004;-53
2022/07/04 10:14:07;;;;;;;7.90;1.10;;;22.40;99.90;;;;;;5003681;28;20545;-53
2022/07/04 10:16:34;;;;;;;1.63;1.00;;;22.30;99.90;;;;;;5001341;28;20473;-52
2022/07/04 10:19:01;;;;;;;4.63;1.00;;;22.00;99.90;;;;;;5000100;28;20460;-52
2022/07/04 10:21:29;;;;;;;1.23;0.90;;;22.00;99.90;;;;;;5004547;28;20464;-52
2022/07/04 10:23:55;;;;;;;2.90;1.13;;;22.30;99.90;;;;;;4998696;28;20574;-52
2022/07/04 10:26:23;;;;;;;1.17;0.83;;;22.30;99.90;;;;;;5000629;28;20791;-53
2022/07/04 10:28:51;;;;;;;1.93;0.80;;;22.20;99.90;;;;;;5005123;28;20466;-52
2022/07/04 10:31:21;;;;;;;1.13;0.70;;;22.10;99.90;;;;;;5002359;28;20573;-51
2022/07/04 10:33:48;;;;;;;1.50;0.60;;;21.90;99.90;;;;;;5000425;28;20494;-52
2022/07/04 10:36:17;;;;;;;2.30;0.80;;;21.90;99.90;;;;;;5002082;28;20472;-53
2022/07/04 10:38:51;;;;;;;0.80;0.80;;;21.80;99.90;;;;;;5005587;28;20547;-53
2022/07/04 10:41:20;;;;;;;0.97;0.87;;;22.00;99.90;;;;;;4998772;28;21114;-53
2022/07/04 10:43:53;;;;;;;1.27;0.70;;;22.10;99.90;;;;;;5005616;28;20494;-53
2022/07/04 10:46:32;;;;;;;5.40;1.00;;;22.00;99.90;;;;;;5002234;28;20459;-53
2022/07/04 10:49:01;;;;;;;0.80;0.80;;;22.10;99.90;;;;;;5001860;28;20468;-52
2022/07/04 10:51:45;;;;;;;3.07;0.90;;;22.20;99.90;;;;;;5003327;28;20514;-52
2022/07/04 10:54:14;;;;;;;3.27;0.70;;;22.40;99.90;;;;;;5007747;28;20513;-52
2022/07/04 10:56:50;;;;;;;1.27;0.80;;;22.30;99.90;;;;;;4998238;28;20463;-52
2022/07/04 10:59:19;;;;;;;0.83;0.70;;;22.40;99.90;;;;;;4998333;28;20873;-52
2022/07/04 11:02:06;;;;;;;0.80;0.60;;;22.70;99.90;;;;;;5006306;28;20999;-53
2022/07/04 11:04:47;;;;;;;3.87;1.10;;;23.00;99.90;;;;;;4982054;28;20491;-52
2022/07/04 11:07:14;;;;;;;2.67;1.10;;;23.10;99.90;;;;;;4999343;28;20613;-53
2022/07/04 11:09:42;;;;;;;1.40;0.60;;;23.00;99.90;;;;;;4998573;28;20613;-52
2022/07/04 11:12:09;;;;;;;2.17;0.80;;;23.20;99.90;;;;;;5001294;28;20487;-52
2022/07/04 11:14:41;;;;;;;1.90;0.90;;;23.10;99.90;;;;;;5010779;28;20823;-52
2022/07/04 11:17:10;;;;;;;2.10;0.77;;;22.80;99.90;;;;;;5001507;28;20456;-54
2022/07/04 11:19:37;;;;;;;1.70;0.50;;;22.70;99.90;;;;;;5004453;28;20463;-52
2022/07/04 11:22:05;;;;;;;3.23;0.60;;;22.50;99.90;;;;;;4997657;28;20469;-53
2022/07/04 11:24:33;;;;;;;1.80;0.60;;;22.70;99.90;;;;;;4995459;28;20542;-54
2022/07/04 11:27:01;;;;;;;3.10;0.70;;;22.90;99.90;;;;;;4998760;28;20922;-52
2022/07/04 11:29:28;;;;;;;2.07;0.90;;;23.30;99.90;;;;;;4998968;28;21077;-53
2022/07/04 11:31:55;;;;;;;6.77;0.50;;;23.40;99.90;;;;;;4995314;28;20964;-52
2022/07/04 11:34:24;;;;;;;4.17;1.20;;;23.50;99.90;;;;;;5001423;28;20488;-52
2022/07/04 11:36:53;;;;;;;4.10;1.00;;;23.70;99.90;;;;;;5000401;28;20464;-51
2022/07/04 11:39:21;;;;;;;0.60;0.60;;;23.80;99.90;;;;;;4998302;28;20957;-52
2022/07/04 11:47:23;;;;;;;2.93;0.77;;;24.10;99.90;;;;;;4996573;28;20478;-52
2022/07/04 11:49:53;;;;;;;2.93;0.70;;;23.90;99.90;;;;;;4994301;28;21005;-52
2022/07/04 11:52:22;;;;;;;2.40;1.10;;;23.60;99.90;;;;;;4997710;28;20832;-53
2022/07/04 11:54:50;;;;;;;2.47;0.70;;;23.50;99.90;;;;;;4994563;28;20484;-52
2022/07/04 11:57:23;;;;;;;1.20;0.90;;;23.20;99.90;;;;;;5011053;28;20459;-52
2022/07/04 11:59:58;;;;;;;8.23;1.07;;;23.30;99.90;;;;;;4994619;28;20858;-52
2022/07/04 12:02:26;;;;;;;0.93;0.63;;;23.50;99.90;;;;;;4997732;28;20455;-52
2022/07/04 12:04:55;;;;;;;2.60;0.70;;;23.50;99.90;;;;;;4996473;28;20490;-52
2022/07/04 12:07:25;;;;;;;0.60;0.60;;;23.30;99.90;;;;;;4999770;28;20466;-52
2022/07/04 12:09:52;;;;;;;2.80;1.00;;;23.10;99.90;;;;;;4998256;28;20488;-52
2022/07/04 12:12:19;;;;;;;4.93;0.70;;;23.00;99.90;;;;;;5001132;28;20478;-53
2022/07/04 12:15:02;;;;;;;2.00;0.90;;;23.20;99.90;;;;;;4998513;28;20483;-53
2022/07/04 12:17:34;;;;;;;1.73;0.70;;;23.40;99.90;;;;;;5003134;28;20463;-52
2022/07/04 12:20:05;;;;;;;1.47;0.60;;;23.80;99.90;;;;;;4996056;28;20846;-52
2022/07/04 12:22:35;;;;;;;0.90;0.63;;;23.90;99.90;;;;;;5001696;28;20522;-51
2022/07/04 12:25:02;;;;;;;2.40;0.67;;;23.90;99.90;;;;;;5001395;28;20516;-54
2022/07/04 12:27:30;;;;;;;2.73;0.77;;;23.90;99.90;;;;;;5005671;28;20459;-53
2022/07/04 12:29:58;;;;;;;1.60;0.60;;;23.90;99.90;;;;;;4997013;28;20472;-52
2022/07/04 12:32:43;;;;;;;5.90;1.00;;;23.80;99.90;;;;;;4996701;28;20479;-52
2022/07/04 12:35:26;;;;;;;3.60;0.80;;;23.50;99.90;;;;;;5000513;28;21308;-52
2022/07/04 12:38:01;;;;;;;2.80;0.80;;;23.20;99.90;;;;;;4993634;28;20523;-52
2022/07/04 12:40:28;;;;;;;0.80;0.80;;;23.10;99.90;;;;;;4996883;28;20463;-52
2022/07/04 12:42:55;;;;;;;1.00;0.80;;;23.00;99.90;;;;;;4994849;28;20533;-53
2022/07/04 12:45:22;;;;;;;2.83;0.80;;;22.90;99.90;;;;;;5000108;28;20486;-52
2022/07/04 12:47:49;;;;;;;1.37;0.87;;;22.80;99.90;;;;;;4999739;28;20510;-53
2022/07/04 12:50:26;;;;;;;5.20;0.83;;;22.70;99.90;;;;;;4990937;28;21531;-52
2022/07/04 12:52:53;;;;;;;0.70;0.60;;;22.70;99.90;;;;;;5009616;23;20491;-49
2022/07/04 12:55:20;;;;;;;2.57;0.73;;;22.60;99.90;;;;;;5002083;28;20521;-49
2022/07/04 12:57:46;;;;;;;2.70;0.70;;;22.90;99.90;;;;;;4998566;28;20474;-48
2022/07/04 13:00:13;;;;;;;8.63;1.40;;;23.30;99.90;;;;;;4998794;28;20464;-49
2022/07/04 13:02:40;;;;;;;2.40;1.43;;;23.60;99.90;;;;;;4994368;28;20510;-49
2022/07/04 13:05:07;;;;;;;3.67;0.97;;;23.90;99.90;;;;;;4999704;28;20460;-49
2022/07/04 13:07:35;;;;;;;1.43;1.27;;;24.20;99.90;;;;;;5003277;28;20467;-49
2022/07/04 13:10:01;;;;;;;6.83;1.30;;;24.40;99.90;;;;;;4997156;28;20468;-49